Time;durP1;ratioP1;P1;durP2;ratioP2;P2;SDS_P1;SDS_P2;PMS_P1;PMS_P2;Temp;Humidity;BMP_temperature;BMP_pressure;BME280_temperature;BME280_humidity;BME280_pressure;Samples;Min_cycle;Max_cycle;Signal;HPM_P1;HPM_P2
2021/11/24 00:00:11;;;;;;;28.43;18.47;;;;;;;;;;5015963;28;20491;-64
2021/11/24 00:02:37;;;;;;;28.33;19.77;;;;;;;;;;4992238;28;20501;-64
2021/11/24 00:05:03;;;;;;;29.93;19.27;;;;;;;;;;4982906;28;20400;-64
2021/11/24 00:07:29;;;;;;;27.70;17.93;;;;;;;;;;5003349;28;20918;-64
2021/11/24 00:09:55;;;;;;;26.27;17.90;;;;;;;;;;5014078;28;20419;-64
2021/11/24 00:12:21;;;;;;;31.10;21.13;;;;;;;;;;4999906;28;20403;-64
2021/11/24 00:14:47;;;;;;;28.57;20.60;;;;;;;;;;5019362;28;20439;-64
2021/11/24 00:17:13;;;;;;;29.63;18.93;;;;;;;;;;5007365;28;20422;-64
2021/11/24 00:19:39;;;;;;;26.03;19.27;;;;;;;;;;4988338;28;20453;-65
2021/11/24 00:22:05;;;;;;;31.70;21.10;;;;;;;;;;4989826;28;20416;-64
2021/11/24 00:24:31;;;;;;;30.47;19.90;;;;;;;;;;5022647;28;20414;-63
2021/11/24 00:26:58;;;;;;;29.80;19.63;;;;;;;;;;5016458;28;20508;-65
2021/11/24 00:29:24;;;;;;;33.23;21.13;;;;;;;;;;5001549;28;20919;-65
2021/11/24 00:31:50;;;;;;;31.13;19.90;;;;;;;;;;5006410;28;20432;-64
2021/11/24 00:34:16;;;;;;;29.50;20.00;;;;;;;;;;5022015;28;20451;-65
2021/11/24 00:36:42;;;;;;;36.23;22.70;;;;;;;;;;5016083;28;20535;-65
2021/11/24 00:39:08;;;;;;;36.23;23.43;;;;;;;;;;5003501;28;20504;-63
2021/11/24 00:41:34;;;;;;;27.40;19.80;;;;;;;;;;4990565;28;20446;-63
2021/11/24 00:44:00;;;;;;;28.77;19.63;;;;;;;;;;5021693;28;20496;-63
2021/11/24 00:46:26;;;;;;;30.63;20.57;;;;;;;;;;5020055;28;20879;-65
2021/11/24 00:48:52;;;;;;;31.20;21.30;;;;;;;;;;5005117;28;20418;-65
2021/11/24 00:51:18;;;;;;;32.70;21.77;;;;;;;;;;4990863;28;20515;-65
2021/11/24 00:53:44;;;;;;;29.47;20.00;;;;;;;;;;5021176;28;20412;-63
2021/11/24 00:56:11;;;;;;;30.40;21.50;;;;;;;;;;5021192;28;20408;-65
2021/11/24 00:58:37;;;;;;;33.67;21.37;;;;;;;;;;5003222;28;20457;-65
2021/11/24 01:01:03;;;;;;;33.23;22.10;;;;;;;;;;5005743;28;20463;-64
2021/11/24 01:03:29;;;;;;;31.13;22.27;;;;;;;;;;5020381;28;20419;-64
2021/11/24 01:05:55;;;;;;;34.70;21.30;;;;;;;;;;5021432;28;20403;-64
2021/11/24 01:08:22;;;;;;;36.90;21.23;;;;;;;;;;5008148;28;20499;-64
2021/11/24 01:10:48;;;;;;;33.60;21.23;;;;;;;;;;5004105;28;20491;-64
2021/11/24 01:13:15;;;;;;;28.13;18.67;;;;;;;;;;5019894;28;20430;-64
2021/11/24 01:15:41;;;;;;;30.70;19.70;;;;;;;;;;5018734;28;20408;-64
2021/11/24 01:18:07;;;;;;;31.17;22.53;;;;;;;;;;5010865;28;20803;-64
2021/11/24 01:20:34;;;;;;;33.17;23.57;;;;;;;;;;5003528;28;20462;-64
2021/11/24 01:23:00;;;;;;;32.37;21.27;;;;;;;;;;5018887;28;20412;-64
2021/11/24 01:25:26;;;;;;;29.10;19.87;;;;;;;;;;5018784;28;20404;-64
2021/11/24 01:27:52;;;;;;;32.40;20.70;;;;;;;;;;5008605;28;20827;-64
2021/11/24 01:30:18;;;;;;;28.70;19.57;;;;;;;;;;5001150;28;20432;-64
2021/11/24 01:32:44;;;;;;;29.53;19.47;;;;;;;;;;5009321;28;20417;-64
2021/11/24 01:35:11;;;;;;;31.00;20.13;;;;;;;;;;5015835;28;20438;-64
2021/11/24 01:37:37;;;;;;;30.73;20.40;;;;;;;;;;5008111;28;20409;-64
2021/11/24 01:40:04;;;;;;;32.77;18.70;;;;;;;;;;5001267;28;20482;-67
2021/11/24 01:42:30;;;;;;;33.73;19.17;;;;;;;;;;5021313;28;20412;-65
2021/11/24 01:44:56;;;;;;;35.07;21.00;;;;;;;;;;5020540;28;20422;-64
2021/11/24 01:47:22;;;;;;;33.67;19.50;;;;;;;;;;5011999;28;20414;-64
2021/11/24 01:49:49;;;;;;;31.43;20.03;;;;;;;;;;4997072;28;20502;-65
2021/11/24 01:52:15;;;;;;;30.73;20.70;;;;;;;;;;5021190;28;20498;-65
2021/11/24 01:54:42;;;;;;;36.13;22.17;;;;;;;;;;5020189;28;20502;-65
2021/11/24 01:57:08;;;;;;;36.40;22.13;;;;;;;;;;5013315;28;20414;-65
2021/11/24 01:59:34;;;;;;;33.40;19.30;;;;;;;;;;5000484;28;20466;-64
2021/11/24 02:02:00;;;;;;;33.23;21.63;;;;;;;;;;5019967;28;20432;-65
2021/11/24 02:04:26;;;;;;;39.77;21.80;;;;;;;;;;5020668;28;20419;-65
2021/11/24 02:06:53;;;;;;;39.17;21.37;;;;;;;;;;5014653;28;20414;-64
2021/11/24 02:09:20;;;;;;;35.23;21.70;;;;;;;;;;4994673;28;20423;-64
2021/11/24 02:11:46;;;;;;;40.70;21.70;;;;;;;;;;5020378;28;20439;-65
2021/11/24 02:14:13;;;;;;;37.10;20.90;;;;;;;;;;5018919;28;20788;-65
2021/11/24 02:16:44;;;;;;;35.40;21.23;;;;;;;;;;5015087;28;20473;-65
2021/11/24 02:19:10;;;;;;;38.00;23.03;;;;;;;;;;4986812;28;20476;-65
2021/11/24 02:21:36;;;;;;;32.70;21.33;;;;;;;;;;5015816;28;20973;-65
2021/11/24 02:24:02;;;;;;;34.90;21.73;;;;;;;;;;5019582;28;20399;-65
2021/11/24 02:26:28;;;;;;;33.57;21.83;;;;;;;;;;5014280;28;20403;-65
2021/11/24 02:28:54;;;;;;;34.90;21.80;;;;;;;;;;4984427;28;20424;-64
2021/11/24 02:31:23;;;;;;;35.73;21.73;;;;;;;;;;4992550;28;20436;-64
2021/11/24 02:33:52;;;;;;;29.40;19.70;;;;;;;;;;4978431;28;20449;-65
2021/11/24 02:36:19;;;;;;;30.73;18.63;;;;;;;;;;4979070;28;20453;-64
2021/11/24 02:38:45;;;;;;;29.80;19.27;;;;;;;;;;4987875;28;20452;-64
2021/11/24 02:41:11;;;;;;;29.30;18.93;;;;;;;;;;4998975;28;20440;-64
2021/11/24 02:43:37;;;;;;;30.17;19.70;;;;;;;;;;5013868;28;20898;-63
2021/11/24 02:46:03;;;;;;;33.47;21.10;;;;;;;;;;5009970;28;20889;-65
2021/11/24 02:48:29;;;;;;;28.73;18.40;;;;;;;;;;4985046;28;20442;-65
2021/11/24 02:50:56;;;;;;;34.60;20.23;;;;;;;;;;5002014;28;20917;-65
2021/11/24 02:53:26;;;;;;;32.30;20.30;;;;;;;;;;5008596;28;20898;-64
2021/11/24 02:55:52;;;;;;;35.10;21.60;;;;;;;;;;5010397;28;20428;-65
2021/11/24 02:58:18;;;;;;;37.20;22.37;;;;;;;;;;4981728;28;20497;-63
2021/11/24 03:00:44;;;;;;;37.20;22.60;;;;;;;;;;5006119;28;20436;-64
2021/11/24 03:03:10;;;;;;;33.93;19.60;;;;;;;;;;5009612;28;20455;-64
2021/11/24 03:05:36;;;;;;;37.87;21.60;;;;;;;;;;5018231;28;20759;-63
2021/11/24 03:08:03;;;;;;;37.70;22.30;;;;;;;;;;4984203;28;20898;-64
2021/11/24 03:10:29;;;;;;;34.40;19.50;;;;;;;;;;4999569;28;20420;-64
2021/11/24 03:12:55;;;;;;;38.17;20.90;;;;;;;;;;5005391;28;20423;-64
2021/11/24 03:15:21;;;;;;;34.03;20.63;;;;;;;;;;5018532;28;20494;-63
2021/11/24 03:17:47;;;;;;;30.43;18.43;;;;;;;;;;4998797;28;20408;-63
2021/11/24 03:20:13;;;;;;;34.17;21.33;;;;;;;;;;5012142;28;20502;-64
2021/11/24 03:22:40;;;;;;;35.87;19.10;;;;;;;;;;5013076;28;20471;-65
2021/11/24 03:25:06;;;;;;;31.37;19.30;;;;;;;;;;5014515;28;20759;-63
2021/11/24 03:27:34;;;;;;;28.70;18.20;;;;;;;;;;4985411;28;20460;-63
2021/11/24 03:30:01;;;;;;;27.30;18.00;;;;;;;;;;4997276;28;20536;-63
2021/11/24 03:32:27;;;;;;;29.80;18.10;;;;;;;;;;4996608;28;20776;-64
2021/11/24 03:34:54;;;;;;;28.10;16.57;;;;;;;;;;5001605;28;20424;-64
2021/11/24 03:37:20;;;;;;;29.67;18.17;;;;;;;;;;4992541;28;20501;-64
2021/11/24 03:39:47;;;;;;;30.97;18.20;;;;;;;;;;4995861;28;20479;-64
2021/11/24 03:42:14;;;;;;;31.50;17.77;;;;;;;;;;4997134;28;20400;-64
2021/11/24 03:44:40;;;;;;;39.10;20.90;;;;;;;;;;5000237;28;20413;-63
2021/11/24 03:47:06;;;;;;;27.90;16.43;;;;;;;;;;4996025;28;20400;-63
2021/11/24 03:49:32;;;;;;;29.77;17.67;;;;;;;;;;4996929;28;20420;-64
2021/11/24 03:51:58;;;;;;;31.57;19.43;;;;;;;;;;4996892;28;20432;-63
2021/11/24 03:54:24;;;;;;;31.87;17.53;;;;;;;;;;5001166;28;20495;-65
2021/11/24 03:56:50;;;;;;;28.43;18.10;;;;;;;;;;4996917;28;20810;-64
2021/11/24 03:59:16;;;;;;;24.93;16.73;;;;;;;;;;5001714;28;20454;-64
2021/11/24 04:01:42;;;;;;;25.77;16.73;;;;;;;;;;4996872;28;20460;-63
2021/11/24 04:04:08;;;;;;;28.90;18.23;;;;;;;;;;4998159;28;20883;-64
2021/11/24 04:06:34;;;;;;;27.80;17.30;;;;;;;;;;5012519;28;20498;-64
2021/11/24 04:09:01;;;;;;;27.03;17.10;;;;;;;;;;5016284;28;20415;-63
2021/11/24 04:11:27;;;;;;;26.13;16.40;;;;;;;;;;4986074;28;20453;-63
2021/11/24 04:13:53;;;;;;;25.53;15.47;;;;;;;;;;4996486;28;20799;-63
2021/11/24 04:16:19;;;;;;;25.63;15.93;;;;;;;;;;5008924;28;20422;-63
2021/11/24 04:18:47;;;;;;;24.70;16.00;;;;;;;;;;5015852;28;20533;-63
2021/11/24 04:21:14;;;;;;;26.80;17.20;;;;;;;;;;5015824;28;20477;-63
2021/11/24 04:23:40;;;;;;;26.03;15.43;;;;;;;;;;5014583;28;20467;-63
2021/11/24 04:26:06;;;;;;;21.03;14.00;;;;;;;;;;5010965;28;20438;-64
2021/11/24 04:28:32;;;;;;;23.47;14.30;;;;;;;;;;5005324;28;20424;-64
2021/11/24 04:30:58;;;;;;;21.47;14.80;;;;;;;;;;4996070;28;20463;-63
2021/11/24 04:33:24;;;;;;;22.53;14.33;;;;;;;;;;4994840;28;20863;-65
2021/11/24 04:35:50;;;;;;;23.23;15.33;;;;;;;;;;5001544;28;20454;-64
2021/11/24 04:38:16;;;;;;;22.93;15.27;;;;;;;;;;5014852;28;20412;-64
2021/11/24 04:40:42;;;;;;;24.70;15.13;;;;;;;;;;5015566;28;20427;-64
2021/11/24 04:43:11;;;;;;;23.00;16.20;;;;;;;;;;5015486;28;20499;-65
2021/11/24 04:45:37;;;;;;;28.13;16.53;;;;;;;;;;4998081;28;20409;-66
2021/11/24 04:48:03;;;;;;;22.83;15.13;;;;;;;;;;4979042;28;20919;-65
2021/11/24 04:50:30;;;;;;;26.37;16.90;;;;;;;;;;4976372;28;20856;-64
2021/11/24 04:52:56;;;;;;;24.20;16.67;;;;;;;;;;4976633;28;20767;-64
2021/11/24 04:55:22;;;;;;;22.47;14.90;;;;;;;;;;4985131;28;20428;-64
2021/11/24 04:57:48;;;;;;;25.53;16.23;;;;;;;;;;5014537;28;20419;-64
2021/11/24 05:00:18;;;;;;;21.60;15.20;;;;;;;;;;5011371;28;20514;-64
2021/11/24 05:02:45;;;;;;;24.67;15.43;;;;;;;;;;4995726;28;20408;-64
2021/11/24 05:05:11;;;;;;;25.77;15.27;;;;;;;;;;4985368;28;20930;-64
2021/11/24 05:07:37;;;;;;;23.63;14.93;;;;;;;;;;5013813;28;20902;-63
2021/11/24 05:10:04;;;;;;;23.77;14.63;;;;;;;;;;5015060;28;20424;-64
2021/11/24 05:12:31;;;;;;;22.40;13.93;;;;;;;;;;5015301;28;20404;-65
2021/11/24 05:14:59;;;;;;;21.43;13.80;;;;;;;;;;4989087;28;20405;-64
2021/11/24 05:17:26;;;;;;;24.30;14.20;;;;;;;;;;5008344;28;20415;-64
2021/11/24 05:19:53;;;;;;;28.07;16.90;;;;;;;;;;5014890;28;20817;-64
2021/11/24 05:22:20;;;;;;;21.50;12.97;;;;;;;;;;5021189;28;20432;-64
2021/11/24 05:24:46;;;;;;;30.50;16.53;;;;;;;;;;4995669;28;20413;-64
2021/11/24 05:27:12;;;;;;;30.73;16.57;;;;;;;;;;5011566;28;20462;-63
2021/11/24 05:29:39;;;;;;;25.73;14.77;;;;;;;;;;5020886;28;20422;-65
2021/11/24 05:32:05;;;;;;;28.43;17.23;;;;;;;;;;5020369;28;20423;-65
2021/11/24 05:34:31;;;;;;;38.13;20.30;;;;;;;;;;4997086;28;20420;-65
2021/11/24 05:36:57;;;;;;;32.67;18.70;;;;;;;;;;5004964;28;20448;-65
2021/11/24 05:39:23;;;;;;;32.00;18.00;;;;;;;;;;5019517;28;20451;-64
2021/11/24 05:41:49;;;;;;;32.03;18.63;;;;;;;;;;5021371;28;20538;-64
2021/11/24 05:44:22;;;;;;;31.80;17.47;;;;;;;;;;4998687;28;20409;-65
2021/11/24 05:46:52;;;;;;;35.47;19.37;;;;;;;;;;5011182;28;20488;-65
2021/11/24 05:49:19;;;;;;;31.33;17.17;;;;;;;;;;5014889;28;20435;-65
2021/11/24 05:51:46;;;;;;;33.40;18.53;;;;;;;;;;5020563;28;20436;-65
2021/11/24 05:54:12;;;;;;;29.93;15.90;;;;;;;;;;4996745;28;20409;-65
2021/11/24 05:56:39;;;;;;;28.77;15.97;;;;;;;;;;5013633;28;20413;-65
2021/11/24 05:59:06;;;;;;;28.70;16.90;;;;;;;;;;5011343;28;20538;-65
2021/11/24 06:01:32;;;;;;;28.90;17.30;;;;;;;;;;5020283;28;20506;-65
2021/11/24 06:03:58;;;;;;;31.87;17.33;;;;;;;;;;4996667;28;20449;-65
2021/11/24 06:06:24;;;;;;;30.40;18.07;;;;;;;;;;5019340;28;20408;-64
2021/11/24 06:08:50;;;;;;;26.77;16.83;;;;;;;;;;5003301;28;20423;-65
2021/11/24 06:11:16;;;;;;;32.53;18.00;;;;;;;;;;5014151;28;20434;-65
2021/11/24 06:13:42;;;;;;;26.43;16.27;;;;;;;;;;4992395;28;20512;-65
2021/11/24 06:16:08;;;;;;;27.77;15.27;;;;;;;;;;5013547;28;20424;-63
2021/11/24 06:18:34;;;;;;;27.17;16.20;;;;;;;;;;4998302;28;20495;-64
2021/11/24 06:21:00;;;;;;;33.90;18.70;;;;;;;;;;5013814;28;20968;-65
2021/11/24 06:23:26;;;;;;;25.50;16.00;;;;;;;;;;4993329;28;20482;-65
2021/11/24 06:25:52;;;;;;;27.93;16.37;;;;;;;;;;5012886;28;20407;-65
2021/11/24 06:28:18;;;;;;;30.03;15.90;;;;;;;;;;5002168;28;20412;-63
2021/11/24 06:30:44;;;;;;;26.70;16.77;;;;;;;;;;5008604;28;20442;-64
2021/11/24 06:33:10;;;;;;;28.43;16.67;;;;;;;;;;4994512;28;20489;-65
2021/11/24 06:35:36;;;;;;;32.40;17.40;;;;;;;;;;5001904;28;20421;-64
2021/11/24 06:38:02;;;;;;;24.50;14.80;;;;;;;;;;4995855;28;20412;-65
2021/11/24 06:40:29;;;;;;;32.30;15.80;;;;;;;;;;5001740;28;20471;-63
2021/11/24 06:42:55;;;;;;;27.77;16.60;;;;;;;;;;4991713;28;20409;-63
2021/11/24 06:45:22;;;;;;;23.20;14.47;;;;;;;;;;5007066;28;20423;-62
2021/11/24 06:47:48;;;;;;;26.47;15.43;;;;;;;;;;4998899;28;20522;-64
2021/11/24 06:50:15;;;;;;;23.63;15.13;;;;;;;;;;5004425;28;20577;-64
2021/11/24 06:52:41;;;;;;;26.50;15.40;;;;;;;;;;5001319;28;20424;-64
2021/11/24 06:55:08;;;;;;;23.60;14.20;;;;;;;;;;5019019;28;20494;-65
2021/11/24 06:57:34;;;;;;;21.10;13.00;;;;;;;;;;5001617;28;20420;-63
2021/11/24 07:00:00;;;;;;;21.53;13.20;;;;;;;;;;4999680;28;20527;-63
2021/11/24 07:02:26;;;;;;;23.30;13.60;;;;;;;;;;5006133;28;20423;-67
2021/11/24 07:04:52;;;;;;;23.20;14.38;;;;;;;;;;5000424;28;20478;-66
2021/11/24 07:07:18;;;;;;;20.43;13.67;;;;;;;;;;4993964;28;20542;-69
2021/11/24 07:09:44;;;;;;;21.33;13.60;;;;;;;;;;4995536;28;20418;-70
2021/11/24 07:12:10;;;;;;;21.87;13.83;;;;;;;;;;4998490;28;20451;-70
2021/11/24 07:14:36;;;;;;;22.97;14.90;;;;;;;;;;5001234;28;20412;-70
2021/11/24 07:17:03;;;;;;;25.33;15.00;;;;;;;;;;4993571;28;20484;-70
2021/11/24 07:19:29;;;;;;;24.37;14.60;;;;;;;;;;4993629;28;20452;-70
2021/11/24 07:21:56;;;;;;;25.80;15.50;;;;;;;;;;4997136;28;20469;-70
2021/11/24 07:24:23;;;;;;;29.23;16.20;;;;;;;;;;4995110;28;20452;-70
2021/11/24 07:26:49;;;;;;;24.60;13.83;;;;;;;;;;4993473;28;20397;-69
2021/11/24 07:29:16;;;;;;;23.37;13.20;;;;;;;;;;4993360;28;20403;-69
2021/11/24 07:31:43;;;;;;;21.43;12.70;;;;;;;;;;4992943;28;20485;-69
2021/11/24 07:34:09;;;;;;;20.67;12.47;;;;;;;;;;5009837;28;20420;-68
2021/11/24 07:36:35;;;;;;;25.07;14.20;;;;;;;;;;4998539;28;20417;-68
2021/11/24 07:39:01;;;;;;;19.27;13.53;;;;;;;;;;4993928;28;20452;-69
2021/11/24 07:41:27;;;;;;;20.53;12.57;;;;;;;;;;4993656;28;20433;-68
2021/11/24 07:43:53;;;;;;;19.67;13.90;;;;;;;;;;5012793;28;20754;-64
2021/11/24 07:46:19;;;;;;;19.37;12.53;;;;;;;;;;4996840;28;20926;-70
2021/11/24 07:48:45;;;;;;;25.13;13.93;;;;;;;;;;4991985;28;20417;-68
2021/11/24 07:51:17;;;;;;;16.33;11.97;;;;;;;;;;4989071;28;20441;-69
2021/11/24 07:53:43;;;;;;;19.57;12.87;;;;;;;;;;5008444;28;20829;-68
2021/11/24 07:56:09;;;;;;;19.77;13.73;;;;;;;;;;5005637;28;20428;-68
2021/11/24 07:58:35;;;;;;;15.13;10.50;;;;;;;;;;4989340;28;20427;-71
2021/11/24 08:01:01;;;;;;;22.63;11.83;;;;;;;;;;4984007;28;20472;-65
2021/11/24 08:03:27;;;;;;;19.37;11.90;;;;;;;;;;4999870;28;20526;-63
2021/11/24 08:05:53;;;;;;;24.03;12.40;;;;;;;;;;4990662;28;20416;-63
2021/11/24 08:08:19;;;;;;;15.80;11.73;;;;;;;;;;4991749;28;20451;-67
2021/11/24 08:10:45;;;;;;;19.60;10.87;;;;;;;;;;4986586;28;20804;-63
2021/11/24 08:13:11;;;;;;;17.27;11.33;;;;;;;;;;4995213;28;20428;-64
2021/11/24 08:15:37;;;;;;;18.07;11.37;;;;;;;;;;4992655;28;20442;-62
2021/11/24 08:18:03;;;;;;;16.00;10.73;;;;;;;;;;4992563;28;20460;-62
2021/11/24 08:20:29;;;;;;;18.47;12.00;;;;;;;;;;4991968;28;20560;-68
2021/11/24 08:22:55;;;;;;;15.27;10.47;;;;;;;;;;4994719;28;20429;-61
2021/11/24 08:25:21;;;;;;;13.00;9.73;;;;;;;;;;5007200;28;20416;-63
2021/11/24 08:27:48;;;;;;;15.70;11.00;;;;;;;;;;4995396;28;20767;-66
2021/11/24 08:30:14;;;;;;;18.40;11.63;;;;;;;;;;4987796;28;20448;-63
2021/11/24 08:32:40;;;;;;;16.87;10.63;;;;;;;;;;4993723;28;20435;-63
2021/11/24 08:35:07;;;;;;;20.60;12.20;;;;;;;;;;5007962;28;20408;-63
2021/11/24 08:37:33;;;;;;;17.87;10.87;;;;;;;;;;4995574;28;20435;-62
2021/11/24 08:39:59;;;;;;;17.60;11.03;;;;;;;;;;4993938;28;20478;-63
2021/11/24 08:42:26;;;;;;;14.80;10.73;;;;;;;;;;4993325;28;20484;-64
2021/11/24 08:44:52;;;;;;;16.53;10.67;;;;;;;;;;4995948;28;20417;-63
2021/11/24 08:47:20;;;;;;;16.90;11.87;;;;;;;;;;4995658;28;20985;-63
2021/11/24 08:49:46;;;;;;;18.37;12.10;;;;;;;;;;4994022;28;20446;-64
2021/11/24 08:52:12;;;;;;;15.77;11.43;;;;;;;;;;4999760;28;20424;-63
2021/11/24 08:54:39;;;;;;;14.60;11.27;;;;;;;;;;5001611;28;20452;-65
2021/11/24 08:57:06;;;;;;;19.30;11.87;;;;;;;;;;4993795;28;20417;-65
2021/11/24 08:59:32;;;;;;;15.70;11.57;;;;;;;;;;4994677;28;20463;-65
2021/11/24 09:01:58;;;;;;;18.13;11.70;;;;;;;;;;5001614;28;20476;-65
2021/11/24 09:04:24;;;;;;;17.70;11.70;;;;;;;;;;4997419;28;20924;-63
2021/11/24 09:06:50;;;;;;;17.00;10.37;;;;;;;;;;4999596;28;20953;-64
2021/11/24 09:09:16;;;;;;;15.47;10.30;;;;;;;;;;4993488;28;21012;-65
2021/11/24 09:11:42;;;;;;;19.07;11.07;;;;;;;;;;4994379;28;20540;-63
2021/11/24 09:14:09;;;;;;;16.07;11.40;;;;;;;;;;4995335;28;20404;-63
2021/11/24 09:16:35;;;;;;;13.87;10.47;;;;;;;;;;4996379;28;20408;-63
2021/11/24 09:19:01;;;;;;;13.80;10.20;;;;;;;;;;4993563;28;20460;-62
2021/11/24 09:21:27;;;;;;;15.20;10.30;;;;;;;;;;4992513;28;20456;-64
2021/11/24 09:23:56;;;;;;;17.13;11.80;;;;;;;;;;4993615;28;20421;-64
2021/11/24 09:28:51;;;;;;;13.57;10.63;;;;;;;;;;4993756;28;20428;-66
2021/11/24 09:31:17;;;;;;;17.20;10.90;;;;;;;;;;4995454;28;20526;-63
2021/11/24 09:33:44;;;;;;;15.73;9.80;;;;;;;;;;4993801;28;20778;-62
2021/11/24 09:36:12;;;;;;;17.87;9.30;;;;;;;;;;5001450;28;20426;-62
2021/11/24 09:38:38;;;;;;;13.93;10.00;;;;;;;;;;4994599;28;20435;-63
2021/11/24 09:41:06;;;;;;;12.57;8.57;;;;;;;;;;4993560;28;20448;-64
2021/11/24 09:43:40;;;;;;;13.87;9.93;;;;;;;;;;4998614;28;20519;-63
2021/11/24 09:46:07;;;;;;;14.13;10.53;;;;;;;;;;4995310;28;20495;-63
2021/11/24 09:48:35;;;;;;;17.57;11.03;;;;;;;;;;5001481;28;20427;-65
2021/11/24 09:51:02;;;;;;;19.40;11.50;;;;;;;;;;5008049;28;20471;-64
2021/11/24 09:53:29;;;;;;;17.27;11.73;;;;;;;;;;5000854;28;20536;-65
2021/11/24 09:55:55;;;;;;;17.33;11.53;;;;;;;;;;4994415;28;20944;-65
2021/11/24 09:58:21;;;;;;;18.30;11.73;;;;;;;;;;4992816;28;20436;-65
2021/11/24 10:00:47;;;;;;;14.50;10.10;;;;;;;;;;5001515;28;20467;-66
2021/11/24 10:03:15;;;;;;;16.17;9.57;;;;;;;;;;5004276;28;20474;-64
2021/11/24 10:05:41;;;;;;;14.47;10.07;;;;;;;;;;5007396;28;20466;-65
2021/11/24 10:08:08;;;;;;;12.83;9.70;;;;;;;;;;4995604;28;20416;-63
2021/11/24 10:10:34;;;;;;;13.70;9.17;;;;;;;;;;4990162;28;20445;-64
2021/11/24 10:13:01;;;;;;;15.30;10.03;;;;;;;;;;4992630;28;20893;-69
2021/11/24 10:15:36;;;;;;;14.63;9.43;;;;;;;;;;4999136;28;20413;-63
2021/11/24 10:18:12;;;;;;;15.17;8.80;;;;;;;;;;4993433;28;20484;-63
2021/11/24 10:20:46;;;;;;;18.10;9.87;;;;;;;;;;4997249;28;20460;-65
2021/11/24 10:23:21;;;;;;;13.93;9.13;;;;;;;;;;4987735;28;20514;-62
2021/11/24 10:25:47;;;;;;;13.63;9.60;;;;;;;;;;4988768;28;20501;-62
2021/11/24 10:28:33;;;;;;;15.43;10.13;;;;;;;;;;4991291;28;20424;-63
2021/11/24 10:30:59;;;;;;;18.23;9.83;;;;;;;;;;4991765;28;20610;-63
2021/11/24 10:33:29;;;;;;;13.20;9.00;;;;;;;;;;4999680;28;20416;-63
2021/11/24 10:36:05;;;;;;;13.70;8.83;;;;;;;;;;4995430;28;20420;-64
2021/11/24 10:38:38;;;;;;;12.87;8.43;;;;;;;;;;4992087;28;20846;-63
2021/11/24 10:41:04;;;;;;;12.23;8.07;;;;;;;;;;4991992;28;20970;-64
2021/11/24 10:43:40;;;;;;;16.70;9.00;;;;;;;;;;4991710;28;20545;-61
2021/11/24 10:46:07;;;;;;;12.73;8.87;;;;;;;;;;4992328;28;20436;-63
2021/11/24 10:48:33;;;;;;;10.90;8.10;;;;;;;;;;4997102;28;20404;-64
2021/11/24 10:51:02;;;;;;;10.20;8.07;;;;;;;;;;4991045;28;20433;-62
2021/11/24 10:53:28;;;;;;;12.23;7.27;;;;;;;;;;4991926;28;20747;-63
2021/11/24 10:55:55;;;;;;;15.13;11.47;;;;;;;;;;4991531;28;20769;-65
2021/11/24 10:58:26;;;;;;;12.83;9.30;;;;;;;;;;4990766;28;20507;-64
2021/11/24 11:00:53;;;;;;;13.77;9.10;;;;;;;;;;4989287;28;20499;-62
2021/11/24 11:03:21;;;;;;;9.57;6.87;;;;;;;;;;4994530;28;20788;-63
2021/11/24 11:05:52;;;;;;;13.57;8.60;;;;;;;;;;4995424;28;20519;-63
2021/11/24 11:08:18;;;;;;;12.80;8.40;;;;;;;;;;4995117;28;20516;-63
2021/11/24 11:10:49;;;;;;;12.70;8.70;;;;;;;;;;4997278;28;20468;-64
2021/11/24 11:13:15;;;;;;;10.73;7.40;;;;;;;;;;4993382;28;20432;-63
2021/11/24 11:15:52;;;;;;;9.47;7.57;;;;;;;;;;4991057;28;20775;-63
2021/11/24 11:18:25;;;;;;;11.30;7.47;;;;;;;;;;4994984;28;20433;-62
2021/11/24 11:20:52;;;;;;;14.47;8.53;;;;;;;;;;5026237;23;20492;-62
2021/11/24 11:23:29;;;;;;;15.07;8.97;;;;;;;;;;5048430;28;20536;-63
2021/11/24 11:25:57;;;;;;;15.17;9.00;;;;;;;;;;5030950;28;20456;-63
2021/11/24 11:28:24;;;;;;;13.10;9.17;;;;;;;;;;5040581;28;20423;-63
2021/11/24 11:30:51;;;;;;;12.17;8.63;;;;;;;;;;5045118;28;20437;-63
2021/11/24 11:33:20;;;;;;;11.07;8.77;;;;;;;;;;5044340;28;20919;-63
2021/11/24 11:35:47;;;;;;;10.50;7.70;;;;;;;;;;5047626;28;20822;-63
2021/11/24 11:38:14;;;;;;;13.97;7.67;;;;;;;;;;5048559;28;20463;-62
2021/11/24 11:40:42;;;;;;;14.73;8.93;;;;;;;;;;5049350;28;20465;-62
2021/11/24 11:43:09;;;;;;;14.83;8.63;;;;;;;;;;5047183;28;20508;-61
2021/11/24 11:45:36;;;;;;;12.83;8.50;;;;;;;;;;5050225;28;20428;-62
2021/11/24 11:48:03;;;;;;;12.77;7.43;;;;;;;;;;5052290;28;20418;-62
2021/11/24 11:50:47;;;;;;;11.53;8.03;;;;;;;;;;5051207;28;20969;-62
2021/11/24 11:53:22;;;;;;;12.67;8.77;;;;;;;;;;5053492;28;20567;-62
2021/11/24 11:56:09;;;;;;;10.37;7.70;;;;;;;;;;5047712;28;20520;-63
2021/11/24 11:58:45;;;;;;;14.67;7.63;;;;;;;;;;5046391;28;20937;-61
2021/11/24 12:01:14;;;;;;;11.30;8.47;;;;;;;;;;5048462;28;20484;-61
2021/11/24 12:04:03;;;;;;;10.43;7.47;;;;;;;;;;5048560;28;20508;-60
2021/11/24 12:06:32;;;;;;;11.53;8.00;;;;;;;;;;5053276;28;20723;-61
2021/11/24 12:09:07;;;;;;;13.03;9.17;;;;;;;;;;5047144;28;20434;-61
2021/11/24 12:11:51;;;;;;;12.87;8.17;;;;;;;;;;5048365;28;20449;-61
2021/11/24 12:14:36;;;;;;;9.97;7.23;;;;;;;;;;5051164;28;20424;-62
2021/11/24 12:17:22;;;;;;;11.93;8.07;;;;;;;;;;5053010;28;20410;-62
2021/11/24 12:19:48;;;;;;;12.63;7.90;;;;;;;;;;5047431;28;20468;-61
2021/11/24 12:22:14;;;;;;;10.30;7.10;;;;;;;;;;5053590;28;20445;-59
2021/11/24 12:24:41;;;;;;;11.00;8.10;;;;;;;;;;5051456;28;20438;-63
2021/11/24 12:27:07;;;;;;;12.17;8.63;;;;;;;;;;5053956;28;20421;-62
2021/11/24 12:29:45;;;;;;;10.70;7.80;;;;;;;;;;5050787;28;20818;-63
2021/11/24 12:32:11;;;;;;;13.27;9.47;;;;;;;;;;5049236;28;20441;-61
2021/11/24 12:34:53;;;;;;;11.27;8.37;;;;;;;;;;5049018;28;20471;-62
2021/11/24 12:37:20;;;;;;;10.50;8.30;;;;;;;;;;5051370;28;20410;-61
2021/11/24 12:39:47;;;;;;;10.67;7.80;;;;;;;;;;5049476;28;20513;-62
2021/11/24 12:42:13;;;;;;;13.50;8.17;;;;;;;;;;5052384;28;20445;-63
2021/11/24 12:44:52;;;;;;;12.77;8.43;;;;;;;;;;5051474;28;20445;-61
2021/11/24 12:47:22;;;;;;;12.67;7.60;;;;;;;;;;5051844;28;20924;-62
2021/11/24 12:49:48;;;;;;;12.90;8.27;;;;;;;;;;5052132;28;20425;-61
2021/11/24 12:52:15;;;;;;;12.20;8.63;;;;;;;;;;5052300;28;20470;-63
2021/11/24 12:54:42;;;;;;;29.83;10.03;;;;;;;;;;5049509;28;20908;-62
2021/11/24 12:57:11;;;;;;;14.63;9.83;;;;;;;;;;5051708;28;20429;-62
2021/11/24 12:59:40;;;;;;;17.83;10.33;;;;;;;;;;5051835;28;20462;-63
2021/11/24 13:02:10;;;;;;;12.33;8.53;;;;;;;;;;5051872;28;20473;-62
2021/11/24 13:04:38;;;;;;;12.93;9.60;;;;;;;;;;5050580;28;20433;-62
2021/11/24 13:07:05;;;;;;;20.80;11.10;;;;;;;;;;5046523;28;20613;-61
2021/11/24 13:09:37;;;;;;;12.50;9.20;;;;;;;;;;5051429;28;20520;-61
2021/11/24 13:12:12;;;;;;;14.50;10.03;;;;;;;;;;5049808;28;20503;-61
2021/11/24 13:14:45;;;;;;;14.80;9.77;;;;;;;;;;5050689;28;20829;-61
2021/11/24 13:17:11;;;;;;;15.90;9.40;;;;;;;;;;5046514;28;20429;-63
2021/11/24 13:19:42;;;;;;;14.73;9.80;;;;;;;;;;5052494;28;20456;-62
2021/11/24 13:22:09;;;;;;;18.30;10.60;;;;;;;;;;5051207;28;20479;-61
2021/11/24 13:24:37;;;;;;;19.27;8.77;;;;;;;;;;5051137;28;20418;-60
2021/11/24 13:27:03;;;;;;;13.93;9.30;;;;;;;;;;5051809;28;20483;-62
2021/11/24 13:29:31;;;;;;;13.80;8.50;;;;;;;;;;5051462;28;21271;-61
2021/11/24 13:32:08;;;;;;;12.60;8.57;;;;;;;;;;5048093;28;20496;-61
2021/11/24 13:34:34;;;;;;;22.00;9.40;;;;;;;;;;5032189;28;20433;-61
2021/11/24 13:37:01;;;;;;;14.20;9.43;;;;;;;;;;5046226;28;20576;-62
2021/11/24 13:39:28;;;;;;;20.33;10.20;;;;;;;;;;5050113;28;20453;-62
2021/11/24 13:42:06;;;;;;;34.63;12.73;;;;;;;;;;5051776;28;20462;-62
2021/11/24 13:44:33;;;;;;;26.10;12.43;;;;;;;;;;5047844;28;20521;-62
2021/11/24 13:46:59;;;;;;;126.40;23.10;;;;;;;;;;5049953;28;20762;-63
2021/11/24 13:49:27;;;;;;;54.40;15.30;;;;;;;;;;5049839;28;20819;-62
2021/11/24 13:52:20;;;;;;;49.17;17.13;;;;;;;;;;5050930;28;20437;-63
2021/11/24 13:54:48;;;;;;;18.27;11.53;;;;;;;;;;5047477;28;20454;-62
2021/11/24 13:57:15;;;;;;;18.73;11.83;;;;;;;;;;5049986;28;20449;-62
2021/11/24 13:59:41;;;;;;;17.60;10.43;;;;;;;;;;5051501;28;20481;-63
2021/11/24 14:02:13;;;;;;;20.03;12.30;;;;;;;;;;5051043;28;20445;-62
2021/11/24 14:04:41;;;;;;;15.13;10.10;;;;;;;;;;5046721;28;20803;-63
2021/11/24 14:07:11;;;;;;;16.83;9.87;;;;;;;;;;5049838;28;20422;-61
2021/11/24 14:09:40;;;;;;;17.80;10.57;;;;;;;;;;5051527;28;20418;-61
2021/11/24 14:12:21;;;;;;;19.13;11.37;;;;;;;;;;5051053;28;20525;-62
2021/11/24 14:14:49;;;;;;;17.80;10.50;;;;;;;;;;5048612;28;20422;-62
2021/11/24 14:17:24;;;;;;;15.47;10.10;;;;;;;;;;5049362;28;20507;-63
2021/11/24 14:19:50;;;;;;;21.27;11.37;;;;;;;;;;5050490;28;20550;-64
2021/11/24 14:22:16;;;;;;;20.00;11.63;;;;;;;;;;5049039;28;20457;-63
2021/11/24 14:24:42;;;;;;;17.50;10.33;;;;;;;;;;5049171;28;20425;-63